Time;durP1;ratioP1;P1;durP2;ratioP2;P2;SDS_P1;SDS_P2;PMS_P1;PMS_P2;Temp;Humidity;BMP_temperature;BMP_pressure;BME280_temperature;BME280_humidity;BME280_pressure;Samples;Min_cycle;Max_cycle;Signal;HPM_P1;HPM_P2
2023/03/04 00:02:17;;;;;;;27.13;17.83;;;;;;;;;;4397569;32;319582;-78
2023/03/04 00:04:44;;;;;;;28.00;16.00;;;;;;;;;;4399035;32;319370;-78
2023/03/04 00:07:11;;;;;;;24.87;18.13;;;;;;;;;;4404386;32;319437;-81
2023/03/04 00:09:38;;;;;;;29.43;17.60;;;;;;;;;;4385710;32;318894;-80
2023/03/04 00:12:07;;;;;;;27.00;18.47;;;;;;;;;;4397785;32;319375;-79
2023/03/04 00:14:34;;;;;;;27.13;17.07;;;;;;;;;;4388573;32;319230;-79
2023/03/04 00:17:03;;;;;;;28.90;18.40;;;;;;;;;;4402175;32;319333;-80
2023/03/04 00:19:31;;;;;;;36.63;22.27;;;;;;;;;;4393965;32;319275;-80
2023/03/04 00:21:58;;;;;;;34.73;22.13;;;;;;;;;;4397503;32;319552;-80
2023/03/04 00:24:25;;;;;;;38.90;21.17;;;;;;;;;;4387831;32;319308;-79
2023/03/04 00:26:51;;;;;;;35.50;21.57;;;;;;;;;;4395310;32;319458;-78
2023/03/04 00:29:18;;;;;;;41.83;22.37;;;;;;;;;;4384911;32;319108;-79
2023/03/04 00:31:45;;;;;;;52.00;24.80;;;;;;;;;;4369724;32;398413;-81
2023/03/04 00:34:12;;;;;;;40.90;22.53;;;;;;;;;;4383285;32;319839;-80
2023/03/04 00:36:43;;;;;;;37.47;21.47;;;;;;;;;;4377378;32;319226;-80
2023/03/04 00:39:10;;;;;;;39.50;20.70;;;;;;;;;;4382757;32;318742;-78
2023/03/04 00:41:37;;;;;;;41.03;20.07;;;;;;;;;;4373308;32;319261;-79
2023/03/04 00:44:04;;;;;;;34.87;18.90;;;;;;;;;;4383224;32;319102;-79
2023/03/04 00:46:31;;;;;;;27.73;19.00;;;;;;;;;;4372337;32;319461;-79
2023/03/04 00:48:58;;;;;;;24.60;16.37;;;;;;;;;;4384883;32;318785;-80
2023/03/04 00:51:25;;;;;;;28.70;18.27;;;;;;;;;;4375411;32;319251;-80
2023/03/04 00:53:53;;;;;;;37.03;18.10;;;;;;;;;;4382801;32;319355;-78
2023/03/04 00:56:20;;;;;;;24.57;14.33;;;;;;;;;;4384039;32;319327;-77
2023/03/04 00:58:46;;;;;;;23.40;12.50;;;;;;;;;;4390087;32;419824;-76
2023/03/04 01:01:13;;;;;;;20.40;11.77;;;;;;;;;;4398395;32;319345;-76
2023/03/04 01:03:41;;;;;;;33.60;13.23;;;;;;;;;;4392303;32;319260;-77
2023/03/04 01:06:08;;;;;;;20.43;12.87;;;;;;;;;;4402199;32;319489;-77
2023/03/04 01:08:35;;;;;;;31.43;18.67;;;;;;;;;;4391062;32;319188;-77
2023/03/04 01:11:03;;;;;;;22.87;15.03;;;;;;;;;;4398889;32;319311;-79
2023/03/04 01:13:30;;;;;;;27.93;14.73;;;;;;;;;;4391056;32;319413;-77
2023/03/04 01:15:57;;;;;;;25.73;13.50;;;;;;;;;;4400299;32;318912;-79
2023/03/04 01:18:24;;;;;;;19.43;13.07;;;;;;;;;;4389984;32;379449;-79
2023/03/04 01:20:51;;;;;;;16.67;11.33;;;;;;;;;;4400923;32;319387;-79
2023/03/04 01:23:18;;;;;;;20.33;12.13;;;;;;;;;;4399735;32;318684;-79
2023/03/04 01:25:44;;;;;;;18.70;12.63;;;;;;;;;;4387902;32;319148;-81
2023/03/04 01:28:12;;;;;;;18.17;12.33;;;;;;;;;;4396153;32;319918;-81
2023/03/04 01:30:39;;;;;;;15.63;12.33;;;;;;;;;;4386754;32;318483;-79
2023/03/04 01:33:06;;;;;;;24.33;12.17;;;;;;;;;;4395866;32;351585;-80
2023/03/04 01:35:33;;;;;;;19.87;11.83;;;;;;;;;;4389345;32;319439;-80
2023/03/04 01:38:00;;;;;;;18.40;11.63;;;;;;;;;;4405388;32;319100;-78
2023/03/04 01:40:26;;;;;;;16.83;12.10;;;;;;;;;;4400626;32;319061;-81
2023/03/04 01:42:53;;;;;;;20.23;10.93;;;;;;;;;;4406357;32;318826;-79
2023/03/04 01:45:22;;;;;;;15.67;10.83;;;;;;;;;;4403070;32;319072;-82
2023/03/04 01:47:50;;;;;;;18.87;10.33;;;;;;;;;;4402556;32;317947;-82
2023/03/04 01:50:21;;;;;;;15.37;11.30;;;;;;;;;;4398096;32;318472;-78
2023/03/04 01:52:48;;;;;;;28.53;12.87;;;;;;;;;;4383477;32;418425;-79
2023/03/04 01:55:16;;;;;;;20.63;11.83;;;;;;;;;;4397599;32;319592;-79
2023/03/04 01:57:44;;;;;;;16.47;11.53;;;;;;;;;;4386528;32;319222;-81
2023/03/04 02:00:20;;;;;;;17.93;11.23;;;;;;;;;;4397644;32;319212;-78
2023/03/04 02:02:53;;;;;;;25.07;12.93;;;;;;;;;;4384873;32;420004;-79
2023/03/04 02:05:21;;;;;;;22.03;12.33;;;;;;;;;;4396440;32;318698;-80
2023/03/04 02:07:48;;;;;;;27.30;13.10;;;;;;;;;;4384198;32;418983;-80
2023/03/04 02:10:16;;;;;;;31.57;17.00;;;;;;;;;;4399372;32;318944;-81
2023/03/04 02:12:44;;;;;;;22.20;14.23;;;;;;;;;;4387783;32;318867;-78
2023/03/04 02:15:12;;;;;;;26.97;13.97;;;;;;;;;;4399147;32;341939;-80
2023/03/04 02:17:40;;;;;;;23.87;15.03;;;;;;;;;;4390702;32;319446;-80
2023/03/04 02:20:17;;;;;;;22.37;13.97;;;;;;;;;;4400628;32;318855;-79
2023/03/04 02:22:52;;;;;;;21.03;14.90;;;;;;;;;;4389538;32;319163;-80
2023/03/04 02:25:26;;;;;;;23.23;13.53;;;;;;;;;;4398971;32;319300;-80
2023/03/04 02:27:54;;;;;;;24.30;15.70;;;;;;;;;;4386465;32;418814;-80
2023/03/04 02:30:24;;;;;;;23.90;16.13;;;;;;;;;;4399081;32;319785;-80
2023/03/04 02:32:51;;;;;;;21.23;13.40;;;;;;;;;;4373875;32;420254;-80
2023/03/04 02:35:19;;;;;;;22.03;13.53;;;;;;;;;;4384911;32;318721;-82
2023/03/04 02:37:46;;;;;;;17.40;12.73;;;;;;;;;;4365267;32;419028;-83
2023/03/04 02:40:16;;;;;;;19.47;13.67;;;;;;;;;;4385796;32;319121;-79
2023/03/04 02:42:44;;;;;;;25.27;15.33;;;;;;;;;;4377793;32;319263;-82
2023/03/04 02:45:42;;;;;;;24.23;16.23;;;;;;;;;;4385030;32;319299;-79
2023/03/04 02:48:11;;;;;;;30.30;19.63;;;;;;;;;;4372223;32;419728;-80
2023/03/04 02:50:42;;;;;;;32.77;19.63;;;;;;;;;;4375123;32;319133;-80
2023/03/04 02:53:09;;;;;;;34.90;19.07;;;;;;;;;;4384567;32;319261;-80
2023/03/04 02:55:36;;;;;;;26.73;17.10;;;;;;;;;;4374699;32;318470;-80
2023/03/04 02:58:03;;;;;;;26.33;15.30;;;;;;;;;;4397681;32;319043;-79
2023/03/04 03:00:30;;;;;;;51.00;27.40;;;;;;;;;;4381680;32;319551;-79
2023/03/04 03:02:58;;;;;;;30.53;18.30;;;;;;;;;;4384681;32;319399;-80
2023/03/04 03:05:27;;;;;;;31.37;16.83;;;;;;;;;;4389602;32;319141;-79
2023/03/04 03:07:54;;;;;;;24.43;15.13;;;;;;;;;;4387046;32;319250;-80
2023/03/04 03:10:21;;;;;;;25.00;12.27;;;;;;;;;;4389431;32;319271;-81
2023/03/04 03:12:47;;;;;;;24.43;14.17;;;;;;;;;;4384229;32;319199;-80
2023/03/04 03:15:15;;;;;;;21.63;13.43;;;;;;;;;;4383623;32;319270;-79
2023/03/04 03:17:43;;;;;;;28.03;13.50;;;;;;;;;;4382834;32;319272;-79
2023/03/04 03:20:13;;;;;;;22.57;13.90;;;;;;;;;;4396624;32;348477;-80
2023/03/04 03:22:40;;;;;;;26.30;15.40;;;;;;;;;;4388880;32;319460;-80
2023/03/04 03:25:09;;;;;;;37.67;17.93;;;;;;;;;;4397746;32;319229;-80
2023/03/04 03:27:36;;;;;;;28.73;15.77;;;;;;;;;;4382621;32;319526;-80
2023/03/04 03:30:06;;;;;;;21.90;12.33;;;;;;;;;;4384578;32;318729;-80
2023/03/04 03:32:33;;;;;;;23.30;12.70;;;;;;;;;;4374398;32;319534;-80
2023/03/04 03:35:01;;;;;;;24.47;13.73;;;;;;;;;;4384415;32;319384;-81
2023/03/04 03:37:29;;;;;;;23.23;12.40;;;;;;;;;;4373048;32;319453;-81
2023/03/04 03:39:56;;;;;;;21.03;14.50;;;;;;;;;;4384108;32;318585;-80
2023/03/04 03:42:22;;;;;;;26.57;15.23;;;;;;;;;;4373360;32;319418;-80
2023/03/04 03:44:49;;;;;;;21.27;14.10;;;;;;;;;;4384331;32;319071;-80
2023/03/04 03:47:16;;;;;;;29.67;15.33;;;;;;;;;;4383852;32;319210;-80
2023/03/04 03:49:43;;;;;;;20.70;14.60;;;;;;;;;;4374253;32;319350;-80
2023/03/04 03:52:10;;;;;;;22.83;14.43;;;;;;;;;;4394467;32;320375;-80
2023/03/04 03:54:38;;;;;;;32.53;13.67;;;;;;;;;;4386629;32;319501;-80
2023/03/04 03:57:05;;;;;;;20.23;14.43;;;;;;;;;;4398091;32;319497;-81
2023/03/04 03:59:31;;;;;;;28.90;15.67;;;;;;;;;;4386067;32;319459;-81
2023/03/04 04:01:58;;;;;;;27.83;15.83;;;;;;;;;;4383673;32;319877;-81
2023/03/04 04:04:25;;;;;;;31.70;17.60;;;;;;;;;;4378745;32;319424;-81
2023/03/04 04:06:52;;;;;;;27.03;17.27;;;;;;;;;;4382352;32;319773;-79
2023/03/04 04:09:19;;;;;;;28.60;17.83;;;;;;;;;;4382298;32;319435;-81
2023/03/04 04:11:47;;;;;;;36.40;20.17;;;;;;;;;;4374659;32;419873;-81
2023/03/04 04:14:14;;;;;;;30.13;17.53;;;;;;;;;;4397185;32;319452;-80
2023/03/04 04:16:41;;;;;;;26.93;15.37;;;;;;;;;;4388751;32;319356;-79
2023/03/04 04:19:11;;;;;;;22.60;14.00;;;;;;;;;;4384798;32;318809;-78
2023/03/04 04:21:38;;;;;;;24.53;13.60;;;;;;;;;;4379539;32;319797;-80
2023/03/04 04:24:05;;;;;;;22.63;14.07;;;;;;;;;;4398108;32;319204;-80
2023/03/04 04:26:32;;;;;;;18.30;14.13;;;;;;;;;;4381736;32;319382;-81
2023/03/04 04:29:00;;;;;;;36.90;18.53;;;;;;;;;;4382396;32;319446;-80
2023/03/04 04:31:26;;;;;;;30.87;17.53;;;;;;;;;;4371978;32;319511;-80
2023/03/04 04:33:53;;;;;;;21.43;16.27;;;;;;;;;;4383499;32;318992;-81
2023/03/04 04:36:20;;;;;;;24.27;15.90;;;;;;;;;;4383148;32;318059;-79
2023/03/04 04:38:48;;;;;;;33.03;16.30;;;;;;;;;;4380448;32;418550;-82
2023/03/04 04:41:20;;;;;;;21.10;14.03;;;;;;;;;;4385706;32;319262;-79
2023/03/04 04:43:48;;;;;;;22.73;14.20;;;;;;;;;;4385078;32;420597;-80
2023/03/04 04:46:17;;;;;;;19.57;13.10;;;;;;;;;;4395350;32;353177;-80
2023/03/04 04:48:44;;;;;;;21.37;13.63;;;;;;;;;;4386016;32;319542;-81
2023/03/04 04:51:11;;;;;;;28.07;14.63;;;;;;;;;;4383251;32;319381;-82
2023/03/04 04:53:38;;;;;;;21.83;13.03;;;;;;;;;;4371620;32;319649;-81
2023/03/04 04:56:12;;;;;;;28.73;14.40;;;;;;;;;;4381878;32;319421;-81
2023/03/04 04:58:39;;;;;;;21.23;13.53;;;;;;;;;;4373399;32;319483;-81
2023/03/04 05:01:07;;;;;;;20.73;13.20;;;;;;;;;;4386016;32;319289;-80
2023/03/04 05:03:36;;;;;;;29.43;16.27;;;;;;;;;;4370819;32;351550;-81
2023/03/04 05:06:05;;;;;;;33.03;18.87;;;;;;;;;;4396054;32;319225;-79
2023/03/04 05:08:33;;;;;;;37.40;20.97;;;;;;;;;;4356215;32;361337;-80
2023/03/04 05:11:01;;;;;;;34.90;20.63;;;;;;;;;;4381764;32;319485;-80
2023/03/04 05:13:28;;;;;;;41.07;19.97;;;;;;;;;;4370004;32;319296;-81
2023/03/04 05:15:56;;;;;;;21.70;14.33;;;;;;;;;;4382886;32;319290;-81
2023/03/04 05:18:24;;;;;;;25.10;15.57;;;;;;;;;;4375849;32;319440;-79
2023/03/04 05:20:53;;;;;;;29.93;16.73;;;;;;;;;;4397814;32;318926;-80
2023/03/04 05:23:22;;;;;;;27.77;16.87;;;;;;;;;;4392695;32;357468;-81
2023/03/04 05:25:49;;;;;;;28.40;15.17;;;;;;;;;;4381515;32;419855;-81
2023/03/04 05:28:17;;;;;;;28.40;15.40;;;;;;;;;;4380306;32;351851;-80
2023/03/04 05:30:44;;;;;;;26.03;15.87;;;;;;;;;;4371942;32;319383;-79
2023/03/04 05:33:12;;;;;;;40.23;17.90;;;;;;;;;;4383509;32;318508;-80
2023/03/04 05:35:41;;;;;;;29.80;18.00;;;;;;;;;;4384534;32;319709;-80
2023/03/04 05:38:11;;;;;;;29.13;19.07;;;;;;;;;;4404643;32;334706;-79
2023/03/04 05:41:03;;;;;;;34.37;18.33;;;;;;;;;;4399203;32;320964;-82
2023/03/04 05:43:30;;;;;;;33.27;21.40;;;;;;;;;;4403070;32;317429;-82
2023/03/04 05:45:57;;;;;;;36.77;20.90;;;;;;;;;;4411405;32;318877;-78
2023/03/04 05:48:24;;;;;;;62.03;33.80;;;;;;;;;;4386290;32;319135;-79
2023/03/04 05:50:54;;;;;;;25.27;19.00;;;;;;;;;;4383737;32;323588;-80
2023/03/04 05:53:22;;;;;;;34.47;18.73;;;;;;;;;;4380379;32;319657;-81
2023/03/04 05:55:49;;;;;;;34.73;20.07;;;;;;;;;;4387380;32;319430;-82
2023/03/04 05:58:17;;;;;;;37.73;18.90;;;;;;;;;;4384351;32;320015;-80
2023/03/04 06:00:44;;;;;;;27.70;17.97;;;;;;;;;;4373884;32;319393;-80
2023/03/04 06:03:14;;;;;;;34.37;17.77;;;;;;;;;;4384219;32;319339;-78
2023/03/04 06:05:44;;;;;;;33.53;20.30;;;;;;;;;;4375368;32;318739;-77
2023/03/04 06:08:11;;;;;;;34.37;22.10;;;;;;;;;;4396755;32;319806;-76
2023/03/04 06:10:41;;;;;;;31.73;20.63;;;;;;;;;;4374272;32;318847;-79
2023/03/04 06:13:07;;;;;;;34.13;20.83;;;;;;;;;;4382783;32;318835;-79
2023/03/04 06:15:34;;;;;;;46.20;22.60;;;;;;;;;;4382445;32;319685;-79
2023/03/04 06:18:01;;;;;;;33.57;21.83;;;;;;;;;;4400081;32;319276;-78
2023/03/04 06:20:28;;;;;;;35.93;23.17;;;;;;;;;;4374233;32;319368;-79
2023/03/04 06:22:55;;;;;;;33.93;23.27;;;;;;;;;;4383367;32;319355;-82
2023/03/04 06:25:22;;;;;;;34.00;24.77;;;;;;;;;;4373535;32;319796;-80
2023/03/04 06:27:50;;;;;;;37.77;24.50;;;;;;;;;;4385619;32;319323;-79
2023/03/04 06:30:17;;;;;;;55.87;34.17;;;;;;;;;;4387082;32;319336;-81
2023/03/04 06:32:46;;;;;;;53.67;35.90;;;;;;;;;;4386667;32;319488;-79
2023/03/04 06:35:14;;;;;;;62.37;35.00;;;;;;;;;;4397475;32;319252;-79
2023/03/04 06:37:42;;;;;;;37.77;25.13;;;;;;;;;;4375409;32;319426;-78
2023/03/04 06:40:10;;;;;;;48.60;23.10;;;;;;;;;;4383550;32;356611;-79
2023/03/04 06:42:38;;;;;;;37.77;21.90;;;;;;;;;;4389276;32;319339;-79
2023/03/04 06:45:08;;;;;;;31.57;19.83;;;;;;;;;;4399885;32;319416;-79
2023/03/04 06:47:35;;;;;;;40.73;19.23;;;;;;;;;;4388884;32;319333;-79
2023/03/04 06:50:02;;;;;;;37.00;25.60;;;;;;;;;;4398936;32;319495;-78
2023/03/04 06:52:29;;;;;;;41.30;26.20;;;;;;;;;;4388714;32;319434;-77
2023/03/04 06:54:56;;;;;;;44.40;24.60;;;;;;;;;;4398567;32;319456;-79
2023/03/04 06:57:22;;;;;;;35.10;24.43;;;;;;;;;;4387235;32;395774;-78
2023/03/04 06:59:49;;;;;;;38.50;26.33;;;;;;;;;;4399434;32;318891;-81
2023/03/04 07:02:17;;;;;;;39.17;27.60;;;;;;;;;;4399732;32;319181;-80
2023/03/04 07:04:44;;;;;;;35.23;25.57;;;;;;;;;;4390801;32;318753;-81
2023/03/04 07:07:11;;;;;;;43.97;27.20;;;;;;;;;;4400766;32;319300;-82
2023/03/04 07:09:38;;;;;;;43.43;27.17;;;;;;;;;;4390429;32;319462;-82
2023/03/04 07:12:05;;;;;;;43.27;29.00;;;;;;;;;;4405125;32;319246;-81
2023/03/04 07:14:32;;;;;;;38.63;26.97;;;;;;;;;;4402366;32;319449;-81
2023/03/04 07:16:58;;;;;;;47.40;27.27;;;;;;;;;;4404076;32;353298;-79
2023/03/04 07:19:26;;;;;;;45.97;29.63;;;;;;;;;;4392966;32;319434;-79
2023/03/04 07:21:57;;;;;;;44.90;29.20;;;;;;;;;;4405959;32;319470;-82
2023/03/04 07:24:24;;;;;;;45.07;26.73;;;;;;;;;;4393206;32;319653;-79
2023/03/04 07:26:51;;;;;;;52.50;29.50;;;;;;;;;;4402259;32;318614;-80
2023/03/04 07:29:18;;;;;;;54.30;32.17;;;;;;;;;;4403089;32;319460;-81
2023/03/04 07:31:44;;;;;;;44.30;29.20;;;;;;;;;;4381229;32;337770;-78
2023/03/04 07:34:16;;;;;;;42.43;27.17;;;;;;;;;;4403043;32;319684;-79
2023/03/04 07:36:45;;;;;;;40.97;26.33;;;;;;;;;;4393689;32;320107;-78
2023/03/04 07:39:12;;;;;;;42.43;26.77;;;;;;;;;;4398585;32;319671;-80
2023/03/04 07:41:40;;;;;;;41.03;24.50;;;;;;;;;;4388644;32;319331;-81
2023/03/04 07:44:08;;;;;;;45.00;28.20;;;;;;;;;;4398063;32;319541;-81
2023/03/04 07:46:35;;;;;;;40.37;24.07;;;;;;;;;;4387030;32;319458;-80
2023/03/04 07:49:02;;;;;;;40.30;24.07;;;;;;;;;;4391536;32;319413;-79
2023/03/04 07:51:29;;;;;;;42.60;27.30;;;;;;;;;;4385925;32;319472;-79
2023/03/04 07:54:00;;;;;;;41.07;25.60;;;;;;;;;;4397745;32;319587;-77
2023/03/04 07:56:29;;;;;;;42.60;26.00;;;;;;;;;;4388954;32;319001;-85
2023/03/04 07:58:56;;;;;;;39.37;22.27;;;;;;;;;;4396193;32;355830;-79
2023/03/04 08:01:25;;;;;;;28.73;20.00;;;;;;;;;;4370752;32;318937;-81
2023/03/04 08:03:52;;;;;;;28.83;18.37;;;;;;;;;;4398508;32;319674;-80
2023/03/04 08:06:20;;;;;;;34.03;21.20;;;;;;;;;;4395763;32;319387;-82
2023/03/04 08:08:49;;;;;;;28.77;19.13;;;;;;;;;;4359928;32;418710;-80
2023/03/04 08:11:19;;;;;;;31.63;15.93;;;;;;;;;;4387548;32;319369;-84
2023/03/04 08:13:46;;;;;;;24.47;15.50;;;;;;;;;;4373648;32;319357;-81
2023/03/04 08:16:14;;;;;;;25.90;16.47;;;;;;;;;;4384078;32;319150;-80
2023/03/04 08:18:42;;;;;;;43.00;32.40;;;;;;;;;;4380467;32;318888;-80
2023/03/04 08:21:10;;;;;;;29.23;15.67;;;;;;;;;;4378469;32;357069;-80
2023/03/04 08:23:37;;;;;;;22.37;14.07;;;;;;;;;;4370498;32;319790;-80
2023/03/04 08:26:08;;;;;;;21.37;14.47;;;;;;;;;;4381344;32;319351;-80
2023/03/04 08:28:38;;;;;;;15.63;10.13;;;;;;;;;;4371295;32;319585;-79
2023/03/04 08:31:06;;;;;;;18.33;11.27;;;;;;;;;;4381061;32;319654;-80
2023/03/04 08:33:33;;;;;;;23.37;12.87;;;;;;;;;;4374551;32;319339;-79
2023/03/04 08:36:00;;;;;;;23.17;14.37;;;;;;;;;;4381319;32;319263;-79
2023/03/04 08:38:27;;;;;;;33.03;16.93;;;;;;;;;;4371926;32;319151;-80
2023/03/04 08:40:55;;;;;;;18.57;13.60;;;;;;;;;;4383085;32;319274;-80
2023/03/04 08:43:22;;;;;;;26.50;11.60;;;;;;;;;;4384061;32;319694;-80
2023/03/04 08:45:51;;;;;;;11.73;7.50;;;;;;;;;;4388331;32;319376;-80
2023/03/04 08:48:19;;;;;;;15.63;8.73;;;;;;;;;;4383792;32;317692;-83
2023/03/04 08:50:47;;;;;;;19.70;10.10;;;;;;;;;;4368134;32;418681;-80
2023/03/04 08:53:14;;;;;;;22.43;11.87;;;;;;;;;;4383917;32;338978;-83
2023/03/04 08:55:41;;;;;;;19.97;9.57;;;;;;;;;;4373127;32;319624;-82
2023/03/04 08:58:09;;;;;;;21.23;9.07;;;;;;;;;;4382572;32;318116;-81
2023/03/04 09:00:38;;;;;;;21.57;8.90;;;;;;;;;;4386067;32;318283;-82
2023/03/04 09:03:06;;;;;;;14.27;7.23;;;;;;;;;;4395575;32;318218;-80
2023/03/04 09:05:33;;;;;;;25.13;9.67;;;;;;;;;;4387165;32;318200;-81
2023/03/04 09:08:00;;;;;;;12.87;6.87;;;;;;;;;;4397156;32;318418;-81
2023/03/04 09:10:27;;;;;;;13.67;6.30;;;;;;;;;;4386033;32;318549;-78
2023/03/04 09:12:54;;;;;;;14.57;5.97;;;;;;;;;;4397349;32;318192;-80
2023/03/04 09:15:20;;;;;;;11.47;6.73;;;;;;;;;;4397203;32;318130;-82
2023/03/04 09:17:47;;;;;;;13.60;7.03;;;;;;;;;;4384386;32;416921;-81
2023/03/04 09:20:15;;;;;;;15.70;8.90;;;;;;;;;;4396275;32;318131;-82
2023/03/04 09:22:42;;;;;;;26.90;10.30;;;;;;;;;;4387242;32;318305;-82
2023/03/04 09:25:13;;;;;;;15.10;9.33;;;;;;;;;;4395751;32;319405;-80
2023/03/04 09:27:40;;;;;;;41.63;24.30;;;;;;;;;;4385904;32;318612;-83
2023/03/04 09:30:08;;;;;;;20.97;11.43;;;;;;;;;;4393878;32;319403;-81
2023/03/04 09:32:35;;;;;;;20.93;9.93;;;;;;;;;;4387812;32;319474;-83
2023/03/04 09:35:02;;;;;;;21.57;11.63;;;;;;;;;;4401748;32;318298;-83
2023/03/04 09:37:30;;;;;;;18.17;11.50;;;;;;;;;;4407153;32;318524;-81
2023/03/04 09:39:56;;;;;;;40.70;24.10;;;;;;;;;;4415734;32;318391;-80
2023/03/04 09:42:27;;;;;;;44.17;26.23;;;;;;;;;;4399171;32;318831;-80
2023/03/04 09:44:55;;;;;;;23.67;15.07;;;;;;;;;;4404364;32;319139;-82
2023/03/04 09:47:24;;;;;;;19.67;12.07;;;;;;;;;;4384440;32;344943;-81
2023/03/04 09:49:56;;;;;;;17.63;11.33;;;;;;;;;;4397516;32;319702;-82
2023/03/04 09:52:37;;;;;;;22.63;13.00;;;;;;;;;;4384342;32;319254;-81
2023/03/04 09:55:15;;;;;;;33.30;18.13;;;;;;;;;;4397177;32;319258;-80
2023/03/04 09:57:49;;;;;;;26.93;12.63;;;;;;;;;;4385687;32;346324;-80
2023/03/04 10:00:18;;;;;;;126.90;58.83;;;;;;;;;;4396146;32;318620;-83
2023/03/04 10:03:03;;;;;;;33.93;19.93;;;;;;;;;;4387713;32;320414;-79
2023/03/04 10:05:32;;;;;;;15.53;11.37;;;;;;;;;;4385719;32;319313;-79
2023/03/04 10:08:09;;;;;;;43.23;21.63;;;;;;;;;;4394277;32;319203;-82
2023/03/04 10:10:42;;;;;;;22.73;13.07;;;;;;;;;;4387438;32;319466;-79
2023/03/04 10:13:15;;;;;;;33.70;16.77;;;;;;;;;;4396031;32;319417;-79
2023/03/04 10:15:45;;;;;;;27.70;17.83;;;;;;;;;;4386618;32;318578;-77
2023/03/04 10:18:18;;;;;;;30.37;16.17;;;;;;;;;;4396209;32;319195;-81
2023/03/04 10:20:53;;;;;;;55.13;27.87;;;;;;;;;;4386931;32;319197;-83
2023/03/04 10:23:24;;;;;;;21.27;14.57;;;;;;;;;;4395403;32;318522;-80
2023/03/04 10:25:53;;;;;;;25.53;14.87;;;;;;;;;;4382814;32;420051;-83
2023/03/04 10:28:24;;;;;;;24.93;16.13;;;;;;;;;;4397020;32;319428;-83
2023/03/04 10:30:56;;;;;;;25.30;15.47;;;;;;;;;;4385591;32;419386;-83
2023/03/04 10:33:25;;;;;;;36.50;18.23;;;;;;;;;;4389881;32;325189;-80
2023/03/04 10:35:59;;;;;;;27.10;15.03;;;;;;;;;;4398910;32;319377;-84
2023/03/04 10:38:31;;;;;;;24.33;16.73;;;;;;;;;;4390145;32;319287;-85
2023/03/04 10:40:58;;;;;;;28.07;14.13;;;;;;;;;;4399359;32;318574;-81
2023/03/04 10:43:25;;;;;;;19.77;13.13;;;;;;;;;;4388601;32;319151;-80
2023/03/04 10:45:57;;;;;;;22.37;13.80;;;;;;;;;;4399811;32;319170;-86
2023/03/04 10:48:25;;;;;;;25.77;18.97;;;;;;;;;;4390004;32;319447;-83
2023/03/04 10:50:52;;;;;;;19.23;12.73;;;;;;;;;;4398187;32;318616;-84
2023/03/04 10:53:29;;;;;;;17.67;12.53;;;;;;;;;;4399727;32;319282;-81
2023/03/04 10:55:58;;;;;;;17.67;11.00;;;;;;;;;;4385763;32;418437;-76
2023/03/04 10:58:25;;;;;;;23.67;14.87;;;;;;;;;;4389653;32;319714;-80
2023/03/04 11:01:01;;;;;;;31.13;12.83;;;;;;;;;;4397703;32;318984;-83
2023/03/04 11:03:34;;;;;;;17.23;11.30;;;;;;;;;;4385387;32;319646;-83
2023/03/04 11:06:12;;;;;;;18.00;9.60;;;;;;;;;;4398016;32;335518;-81
2023/03/04 11:08:40;;;;;;;18.97;11.93;;;;;;;;;;4388287;32;318120;-83
2023/03/04 11:11:22;;;;;;;18.90;12.77;;;;;;;;;;4399185;32;319079;-84
2023/03/04 11:13:56;;;;;;;18.77;14.77;;;;;;;;;;4385523;32;418587;-82
2023/03/04 11:16:26;;;;;;;20.97;13.77;;;;;;;;;;4389075;32;319313;-83
2023/03/04 11:18:55;;;;;;;17.47;10.63;;;;;;;;;;4398370;32;319936;-82
2023/03/04 11:21:23;;;;;;;17.57;12.07;;;;;;;;;;4389091;32;319267;-83
2023/03/04 11:23:54;;;;;;;17.20;9.03;;;;;;;;;;4397821;32;319366;-84
2023/03/04 11:26:29;;;;;;;17.50;10.93;;;;;;;;;;4398808;32;317398;-83
2023/03/04 11:29:00;;;;;;;21.90;11.00;;;;;;;;;;4385783;32;419818;-83
2023/03/04 11:31:31;;;;;;;18.90;11.47;;;;;;;;;;4387826;32;319222;-81
2023/03/04 11:34:02;;;;;;;16.60;8.80;;;;;;;;;;4396178;32;319194;-79
2023/03/04 11:36:34;;;;;;;13.20;9.40;;;;;;;;;;4387387;32;318079;-83
2023/03/04 11:39:03;;;;;;;19.87;11.57;;;;;;;;;;4397029;32;318201;-85
2023/03/04 11:41:35;;;;;;;22.10;14.30;;;;;;;;;;4387654;32;319065;-83
2023/03/04 11:44:02;;;;;;;17.57;12.23;;;;;;;;;;4399393;32;318492;-83
2023/03/04 11:46:53;;;;;;;17.87;11.07;;;;;;;;;;4388381;32;339906;-80
2023/03/04 11:49:38;;;;;;;18.40;12.13;;;;;;;;;;4400074;32;319357;-82
2023/03/04 11:52:15;;;;;;;19.40;10.87;;;;;;;;;;4384541;32;419082;-75
2023/03/04 11:54:50;;;;;;;30.57;19.23;;;;;;;;;;4388678;32;319126;-79
2023/03/04 11:57:30;;;;;;;24.00;11.00;;;;;;;;;;4398603;32;319157;-83
2023/03/04 12:00:09;;;;;;;17.13;11.13;;;;;;;;;;4385163;32;419837;-84
2023/03/04 12:02:44;;;;;;;23.80;10.27;;;;;;;;;;4387914;32;318883;-78
2023/03/04 12:05:26;;;;;;;39.47;29.07;;;;;;;;;;4397059;32;318752;-79
2023/03/04 12:08:28;;;;;;;18.93;11.53;;;;;;;;;;4385105;32;421005;-80
2023/03/04 12:11:03;;;;;;;20.00;12.37;;;;;;;;;;4365946;32;419629;-78
2023/03/04 12:14:08;;;;;;;20.07;9.07;;;;;;;;;;4386244;32;319611;-74
2023/03/04 12:16:55;;;;;;;19.43;10.97;;;;;;;;;;4378974;32;318685;-79
2023/03/04 12:19:30;;;;;;;17.43;11.80;;;;;;;;;;4387624;32;319112;-80
2023/03/04 12:22:18;;;;;;;20.97;14.03;;;;;;;;;;4397674;32;319368;-81
2023/03/04 12:25:09;;;;;;;14.93;10.27;;;;;;;;;;4388300;32;319807;-76
2023/03/04 12:27:43;;;;;;;22.40;11.27;;;;;;;;;;4388121;32;318526;-80
2023/03/04 12:30:25;;;;;;;19.93;10.03;;;;;;;;;;4382860;32;318481;-76
2023/03/04 12:33:01;;;;;;;13.67;9.23;;;;;;;;;;4377454;32;421569;-79
2023/03/04 12:35:36;;;;;;;21.30;8.60;;;;;;;;;;4385805;32;356740;-81
2023/03/04 12:38:33;;;;;;;12.37;8.27;;;;;;;;;;4398405;32;318071;-81
2023/03/04 12:41:20;;;;;;;15.97;9.83;;;;;;;;;;4383430;32;418924;-78
2023/03/04 12:43:53;;;;;;;20.30;8.67;;;;;;;;;;4383898;32;418620;-78
2023/03/04 12:46:41;;;;;;;14.13;8.93;;;;;;;;;;4397374;32;318224;-82
2023/03/04 12:49:41;;;;;;;14.63;9.57;;;;;;;;;;4383488;32;418362;-80
2023/03/04 12:52:18;;;;;;;16.17;8.93;;;;;;;;;;4364502;32;418649;-81
2023/03/04 12:54:48;;;;;;;17.33;9.63;;;;;;;;;;4379179;32;318306;-80
2023/03/04 12:57:17;;;;;;;16.00;9.23;;;;;;;;;;4383063;32;318216;-81
2023/03/04 12:59:52;;;;;;;18.83;13.60;;;;;;;;;;4375748;32;317771;-82
2023/03/04 13:02:50;;;;;;;19.97;10.80;;;;;;;;;;4397005;32;319175;-81
2023/03/04 13:05:31;;;;;;;17.73;11.13;;;;;;;;;;4380106;32;318728;-82
2023/03/04 13:08:08;;;;;;;23.00;12.17;;;;;;;;;;4379668;32;419723;-86
2023/03/04 13:10:35;;;;;;;31.90;20.47;;;;;;;;;;4374948;32;318778;-81
2023/03/04 13:13:04;;;;;;;37.93;21.07;;;;;;;;;;4388042;32;318693;-81
2023/03/04 13:15:38;;;;;;;21.37;13.70;;;;;;;;;;4370672;32;350198;-81
2023/03/04 13:18:32;;;;;;;17.80;11.90;;;;;;;;;;4395315;32;318592;-79
2023/03/04 13:21:21;;;;;;;33.97;24.57;;;;;;;;;;4373163;32;391443;-79
2023/03/04 13:23:48;;;;;;;16.60;11.03;;;;;;;;;;4382875;32;420802;-78
2023/03/04 13:26:29;;;;;;;21.63;11.40;;;;;;;;;;4395878;32;318524;-78
2023/03/04 13:29:35;;;;;;;14.43;10.43;;;;;;;;;;4383502;32;419362;-77
2023/03/04 13:32:04;;;;;;;16.73;8.80;;;;;;;;;;4386526;32;419519;-75
2023/03/04 13:34:51;;;;;;;19.43;12.23;;;;;;;;;;4396088;32;317798;-76
2023/03/04 13:37:32;;;;;;;16.87;11.17;;;;;;;;;;4411391;32;319073;-75
2023/03/04 13:40:33;;;;;;;21.57;12.53;;;;;;;;;;4396208;32;417985;-81
2023/03/04 13:43:28;;;;;;;19.27;11.80;;;;;;;;;;4395755;32;419424;-81
2023/03/04 13:45:55;;;;;;;19.17;13.47;;;;;;;;;;4353594;32;418764;-81
2023/03/04 13:48:30;;;;;;;28.07;19.07;;;;;;;;;;4395782;32;318762;-82
2023/03/04 13:50:57;;;;;;;24.27;16.03;;;;;;;;;;4404716;32;319252;-80
2023/03/04 13:53:41;;;;;;;30.23;17.47;;;;;;;;;;4375430;32;318970;-80
2023/03/04 13:56:32;;;;;;;30.30;19.83;;;;;;;;;;4399675;32;319088;-84
2023/03/04 13:59:10;;;;;;;24.53;17.40;;;;;;;;;;4384857;32;418146;-84
2023/03/04 14:01:55;;;;;;;36.67;18.70;;;;;;;;;;4386188;32;319562;-81
2023/03/04 14:04:25;;;;;;;30.50;19.20;;;;;;;;;;4386367;32;336189;-80
2023/03/04 14:06:53;;;;;;;29.47;19.60;;;;;;;;;;4398789;32;318606;-80
2023/03/04 14:09:23;;;;;;;23.73;18.70;;;;;;;;;;4398141;32;319214;-81
2023/03/04 14:11:52;;;;;;;42.27;21.13;;;;;;;;;;4386738;32;417681;-80
2023/03/04 14:14:22;;;;;;;33.47;23.53;;;;;;;;;;4378810;32;319059;-79
2023/03/04 14:16:51;;;;;;;50.30;27.10;;;;;;;;;;4398601;32;418975;-79
2023/03/04 14:19:24;;;;;;;27.83;19.77;;;;;;;;;;4390169;32;318866;-79
2023/03/04 14:21:51;;;;;;;29.40;20.43;;;;;;;;;;4385955;32;418488;-79
2023/03/04 14:24:23;;;;;;;30.97;21.20;;;;;;;;;;4398419;32;318606;-79
2023/03/04 14:26:50;;;;;;;32.87;20.03;;;;;;;;;;4385827;32;422149;-79